Weather reports worldwide

Advertisment
Luchon/SA, France (7724): temperature & dewpoint: 13.03.2019 09:00:00 - 19.03.2019 09:00:00 (CET)Luchon/SA, France (7724): wind speed & gusts: 13.03.2019 09:00:00 - 19.03.2019 09:00:00 (CET)Luchon/SA, France (7724): wind direction: 13.03.2019 09:00:00 - 19.03.2019 09:00:00 (CET)Luchon/SA, France (7724): precipitation: 13.03.2019 09:00:00 - 19.03.2019 09:00:00 (CET)
Date & Time tt [°C] td [°C] ff [km/h] ff [kn] fx [km/h] fx [kn] dd rr [mm]
19.03.2019 09:00:00 1,9 0,9 2 1 8 4 NE 0,2
19.03.2019 08:00:00 1,6 0,4 4 2 11 6 NNE 0,4
19.03.2019 07:00:00 2,3 1,0 5 3 8 4 NNE -
19.03.2019 06:00:00 2,7 1,1 2 1 9 5 NE 0,4
19.03.2019 05:00:00 2,9 1,3 5 3 9 5 SSE 0,4
19.03.2019 04:00:00 3,6 2,3 0 0 4 2 N 0,2
19.03.2019 03:00:00 3,6 2,1 2 1 5 3 NNW 0,0
19.03.2019 02:00:00 3,5 2,0 2 1 9 5 S 0,0
19.03.2019 01:00:00 4,4 1,9 0 0 4 2 N -
19.03.2019 00:00:00 4,7 1,9 0 0 13 7 N 0,0
18.03.2019 23:00:00 4,7 1,9 9 5 35 19 N 0,0
18.03.2019 22:00:00 5,7 -0,2 8 4 22 12 NNE 0,0
18.03.2019 21:00:00 6,4 -2,0 5 3 11 6 S 0,0
18.03.2019 20:00:00 6,3 -3,4 2 1 11 6 NNE 0,0
18.03.2019 19:00:00 8,3 -4,5 5 3 24 13 NW -
18.03.2019 18:00:00 8,7 -4,2 13 7 34 18 N 0,0
18.03.2019 17:00:00 9,9 -4,1 15 8 31 17 NNW 0,0
18.03.2019 16:00:00 10,4 -4,1 21 11 39 21 N 0,0
18.03.2019 15:00:00 10,7 -3,4 18 10 35 19 N 0,0
18.03.2019 14:00:00 10,5 -3,6 16 9 34 18 N 0,0
18.03.2019 13:00:00 9,7 -4,0 13 7 26 14 N -
18.03.2019 12:00:00 9,2 -3,4 11 6 22 12 NNW 0,0
18.03.2019 11:00:00 8,4 -0,4 8 4 18 10 NNE 0,0
18.03.2019 10:00:00 7,1 2,4 0 0 9 5 N 0,0
18.03.2019 09:00:00 3,4 2,5 0 0 4 2 N 0,0
18.03.2019 08:00:00 0,9 0,0 0 0 5 3 N 0,0
18.03.2019 07:00:00 1,8 0,9 2 1 5 3 NW -
18.03.2019 06:00:00 1,6 0,7 2 1 5 3 SE 0,0
18.03.2019 05:00:00 1,7 0,8 2 1 5 3 NNW 0,0
18.03.2019 04:00:00 1,5 0,5 2 1 5 3 NNW 0,0
18.03.2019 03:00:00 1,1 0,2 0 0 8 4 N 0,0
18.03.2019 02:00:00 1,4 0,4 2 1 5 3 ENE 0,0
18.03.2019 01:00:00 1,6 0,4 2 1 5 3 WNW -
18.03.2019 00:00:00 2,2 0,7 2 1 4 2 WNW 0,0
17.03.2019 23:00:00 3,3 1,0 2 1 9 5 ENE 0,0
17.03.2019 22:00:00 4,5 1,5 4 2 9 5 NNE 0,0
17.03.2019 21:00:00 5,2 2,5 2 1 34 18 SW 0,0
17.03.2019 20:00:00 5,5 2,8 15 8 31 17 NNE 0,0
17.03.2019 19:00:00 6,1 4,1 0 0 8 4 N -
17.03.2019 18:00:00 6,0 3,8 2 1 29 16 N 0,2
17.03.2019 17:00:00 6,7 4,0 16 9 31 17 NNE 0,0
17.03.2019 16:00:00 8,1 3,7 22 12 44 24 NNW 0,4
17.03.2019 15:00:00 10,8 4,9 11 6 22 12 N 0,0
17.03.2019 14:00:00 10,3 5,1 8 4 11 6 SSW 0,0
17.03.2019 13:00:00 9,6 6,1 0 0 5 3 N -
17.03.2019 12:00:00 8,6 6,4 4 2 8 4 S 0,0
17.03.2019 11:00:00 8,0 6,5 2 1 13 7 SSE 0,0
17.03.2019 10:00:00 7,8 6,3 4 2 24 13 NNE 0,0
17.03.2019 09:00:00 8,0 5,6 2 1 9 5 NE 0,0
17.03.2019 08:00:00 7,0 4,8 4 2 9 5 S 0,0
17.03.2019 07:00:00 6,9 4,4 5 3 26 14 ESE -
17.03.2019 06:00:00 4,1 0,1 5 3 13 7 S 0,0
17.03.2019 05:00:00 3,3 -0,2 8 4 26 14 N 0,0
17.03.2019 04:00:00 4,0 0,5 8 4 13 7 NW 0,0
17.03.2019 03:00:00 3,9 0,1 4 2 11 6 NNE 0,0
17.03.2019 02:00:00 4,1 0,1 2 1 8 4 WNW 0,0
17.03.2019 01:00:00 4,8 0,7 4 2 9 5 NNW -
17.03.2019 00:00:00 5,6 0,4 4 2 11 6 WSW 0,0
16.03.2019 23:00:00 6,7 0,8 4 2 11 6 SSW 0,0
16.03.2019 22:00:00 6,7 1,4 2 1 8 4 S 0,0
16.03.2019 21:00:00 8,8 1,2 2 1 13 7 NE 0,0
16.03.2019 20:00:00 11,7 0,7 4 2 11 6 WSW 0,0
16.03.2019 19:00:00 14,4 0,6 5 3 18 10 S -
16.03.2019 18:00:00 17,9 -0,4 9 5 21 11 SSW 0,0
16.03.2019 17:00:00 22,4 -1,7 11 6 28 15 N 0,0
16.03.2019 16:00:00 23,3 -3,1 18 10 37 20 N 0,0
16.03.2019 15:00:00 23,4 -6,6 22 12 39 21 N 0,0
16.03.2019 14:00:00 23,1 -5,9 18 10 34 18 N 0,0
16.03.2019 13:00:00 22,4 -6,4 4 2 11 6 W -
16.03.2019 12:00:00 18,6 -0,8 2 1 8 4 S 0,0
16.03.2019 11:00:00 14,1 0,7 2 1 5 3 E 0,0
16.03.2019 10:00:00 7,6 4,0 2 1 5 3 ESE 0,0
16.03.2019 09:00:00 1,0 0,4 2 1 4 2 NNE 0,0
16.03.2019 08:00:00 -0,9 -1,5 0 0 4 2 N 0,0
16.03.2019 07:00:00 -0,7 -1,3 2 1 5 3 WNW -
16.03.2019 06:00:00 -0,4 -1,0 0 0 4 2 N 0,0
16.03.2019 05:00:00 -0,2 -0,8 0 0 5 3 N 0,0
16.03.2019 04:00:00 0,3 -0,3 0 0 5 3 N 0,0
16.03.2019 03:00:00 1,0 0,3 0 0 8 4 N 0,0
16.03.2019 02:00:00 1,7 1,0 2 1 4 2 N 0,0
16.03.2019 01:00:00 2,3 1,4 0 0 4 2 N -
16.03.2019 00:00:00 2,8 1,8 0 0 4 2 N 0,0
15.03.2019 23:00:00 3,0 1,8 2 1 5 3 ESE 0,0
15.03.2019 22:00:00 4,6 3,3 0 0 8 4 N 0,0
15.03.2019 21:00:00 5,3 3,5 0 0 5 3 N 0,0
15.03.2019 20:00:00 6,7 3,8 4 2 9 5 SSE 0,0
15.03.2019 19:00:00 9,2 4,6 0 0 28 15 N -
15.03.2019 18:00:00 10,6 4,9 15 8 35 19 N 0,0
15.03.2019 17:00:00 12,3 5,0 18 10 37 20 N 0,0
15.03.2019 16:00:00 13,8 5,2 21 11 37 20 N 0,0
15.03.2019 15:00:00 14,3 5,4 18 10 42 23 N 0,0
15.03.2019 14:00:00 14,0 5,1 21 11 34 18 N 0,0
15.03.2019 13:00:00 13,2 4,9 18 10 29 16 N -
15.03.2019 12:00:00 12,0 4,5 13 7 24 13 N 0,0
15.03.2019 11:00:00 9,7 2,8 5 3 11 6 ENE 0,0
15.03.2019 10:00:00 7,4 2,5 4 2 8 4 SSE 0,0
15.03.2019 09:00:00 2,9 1,9 2 1 9 5 SSE 0,0
15.03.2019 08:00:00 1,5 0,5 4 2 11 6 NNE 0,0
15.03.2019 07:00:00 0,8 -0,2 4 2 5 3 S -
15.03.2019 06:00:00 1,6 0,4 0 0 4 2 N 0,0
15.03.2019 05:00:00 1,7 0,4 0 0 11 6 N 0,0
15.03.2019 04:00:00 2,9 0,9 5 3 11 6 N 0,0
15.03.2019 03:00:00 3,6 1,6 4 2 11 6 WNW 0,0
15.03.2019 02:00:00 2,9 1,4 2 1 5 3 N 0,0
15.03.2019 01:00:00 3,5 1,7 2 1 5 3 NW -
15.03.2019 00:00:00 4,1 1,6 0 0 4 2 N 0,0
14.03.2019 23:00:00 5,3 1,9 0 0 5 3 N 0,0
14.03.2019 22:00:00 6,9 2,2 5 3 16 9 NNE 0,0
14.03.2019 21:00:00 7,5 2,0 4 2 16 9 WNW 0,0
14.03.2019 20:00:00 7,5 2,2 9 5 28 15 NNE 0,0
14.03.2019 19:00:00 8,0 2,4 8 4 42 23 NE -
14.03.2019 18:00:00 9,3 1,9 18 10 35 19 N 0,0
14.03.2019 17:00:00 10,5 2,1 18 10 42 23 NNW 0,0
14.03.2019 16:00:00 11,3 2,6 16 9 41 22 N 0,0
14.03.2019 15:00:00 11,6 2,6 22 12 41 22 N 0,0
14.03.2019 14:00:00 11,5 3,3 24 13 41 22 N 0,0
14.03.2019 13:00:00 11,3 2,3 24 13 37 20 N -
14.03.2019 12:00:00 10,3 0,9 5 3 28 15 SW 0,0
14.03.2019 11:00:00 8,5 2,7 15 8 26 14 N 0,0
14.03.2019 10:00:00 5,9 2,5 5 3 11 6 N 0,0
14.03.2019 09:00:00 4,4 3,2 4 2 8 4 SSE 0,0
14.03.2019 08:00:00 4,0 3,0 2 1 5 3 NNE 0,0
14.03.2019 07:00:00 3,7 2,7 4 2 8 4 SE -
14.03.2019 06:00:00 4,0 2,7 0 0 8 4 N 0,0
14.03.2019 05:00:00 4,1 2,6 4 2 8 4 NW 0,0
14.03.2019 04:00:00 4,0 2,5 4 2 8 4 E 0,0
14.03.2019 03:00:00 4,0 2,7 4 2 5 3 SSW 0,0
14.03.2019 02:00:00 3,9 2,4 0 0 5 3 N 0,0
14.03.2019 01:00:00 4,2 2,5 0 0 8 4 N -
14.03.2019 00:00:00 4,3 2,5 2 1 8 4 NNE 0,0
13.03.2019 23:00:00 4,5 2,4 2 1 8 4 ESE 0,0
13.03.2019 22:00:00 4,6 2,3 2 1 8 4 ESE 0,0
13.03.2019 21:00:00 4,6 2,0 4 2 11 6 NE 0,0
13.03.2019 20:00:00 4,6 1,4 8 4 24 13 N 0,0
13.03.2019 19:00:00 5,5 2,3 4 2 11 6 N -
13.03.2019 18:00:00 5,3 2,5 8 4 44 24 SSE 0,2
13.03.2019 17:00:00 6,9 0,8 16 9 41 22 N 0,0
13.03.2019 16:00:00 9,2 -1,5 8 4 42 23 N 0,0
13.03.2019 15:00:00 9,2 -1,3 4 2 21 11 SE 0,0
13.03.2019 14:00:00 8,6 -0,7 4 2 13 7 E 0,0
13.03.2019 13:00:00 8,3 -0,7 4 2 13 7 SE -
13.03.2019 12:00:00 7,6 -0,1 4 2 8 4 ENE 0,0
13.03.2019 11:00:00 7,0 1,1 4 2 13 7 SSE 0,0
13.03.2019 10:00:00 5,9 2,5 8 4 13 7 N 0,0
13.03.2019 09:00:00 4,7 3,2 2 1 8 4 ESE 0,0

tt = temperature
td = dewpoint
ff = wind speed
fx = gusts
dd = wind direction
rr = precipitation

Next stations